createdAt,value
2022-08-17T00:00:43.532Z,18.11
2022-08-17T00:03:55.787Z,18.13
2022-08-17T00:06:59.448Z,18.08
2022-08-17T00:10:03.133Z,18.07
2022-08-17T00:13:11.221Z,17.95
2022-08-17T00:16:19.892Z,17.85
2022-08-17T00:19:27.327Z,17.81
2022-08-17T00:22:35.760Z,17.76
2022-08-17T00:25:43.514Z,17.73
2022-08-17T00:28:47.773Z,17.66
2022-08-17T00:31:51.798Z,17.61
2022-08-17T00:34:56.892Z,17.59
2022-08-17T00:38:00.547Z,17.57
2022-08-17T00:41:09.219Z,17.57
2022-08-17T00:44:13.165Z,17.48
2022-08-17T00:47:16.870Z,17.51
2022-08-17T00:50:22.022Z,17.49
2022-08-17T00:53:26.950Z,17.48
2022-08-17T00:56:37.738Z,17.38
2022-08-17T01:00:01.582Z,17.30
2022-08-17T01:03:13.013Z,17.31
2022-08-17T01:06:18.451Z,17.27
2022-08-17T01:09:22.948Z,17.17
2022-08-17T01:12:26.658Z,17.19
2022-08-17T01:15:31.652Z,17.15
2022-08-17T01:18:36.968Z,17.17
2022-08-17T01:21:51.280Z,17.15
2022-08-17T01:25:01.653Z,17.14
2022-08-17T01:28:06.140Z,17.08
2022-08-17T01:31:11.087Z,17.07
2022-08-17T01:34:18.377Z,17.01
2022-08-17T01:37:32.263Z,16.99
2022-08-17T01:40:40.776Z,17.02
2022-08-17T01:43:52.178Z,17.00
2022-08-17T01:46:56.108Z,16.98
2022-08-17T01:49:59.801Z,16.94
2022-08-17T01:53:08.061Z,16.86
2022-08-17T01:56:17.266Z,16.84
2022-08-17T01:59:22.483Z,16.87
2022-08-17T02:02:30.672Z,16.88
2022-08-17T02:05:35.254Z,16.91
2022-08-17T02:09:01.469Z,16.94
2022-08-17T02:12:38.103Z,16.93
2022-08-17T02:15:28.691Z,17.02
2022-08-17T02:18:32.369Z,17.05
2022-08-17T02:21:37.917Z,17.02
2022-08-17T02:25:00.160Z,16.98
2022-08-17T02:28:06.929Z,17.04
2022-08-17T02:31:13.099Z,17.02
2022-08-17T02:34:17.064Z,17.06
2022-08-17T02:37:20.847Z,17.05
2022-08-17T02:40:35.880Z,17.10
2022-08-17T02:43:42.482Z,17.08
2022-08-17T02:46:46.129Z,17.16
2022-08-17T02:49:54.281Z,17.21
2022-08-17T02:53:02.479Z,17.21
2022-08-17T02:56:06.737Z,17.16
2022-08-17T02:59:11.711Z,17.18
2022-08-17T03:02:15.419Z,17.13
2022-08-17T03:05:22.105Z,17.11
2022-08-17T03:08:25.779Z,17.09
2022-08-17T03:11:29.403Z,17.10
2022-08-17T03:14:37.029Z,17.03
2022-08-17T03:17:45.009Z,17.04
2022-08-17T03:20:48.930Z,17.03
2022-08-17T03:23:54.352Z,17.02
2022-08-17T03:26:58.416Z,16.92
2022-08-17T03:30:04.040Z,16.88
2022-08-17T03:33:11.186Z,16.90
2022-08-17T03:36:15.111Z,16.90
2022-08-17T03:39:18.852Z,16.91
2022-08-17T03:42:32.053Z,16.91
2022-08-17T03:45:56.626Z,16.88
2022-08-17T03:49:17.789Z,16.85
2022-08-17T03:52:38.884Z,16.89
2022-08-17T03:56:00.373Z,16.87
2022-08-17T03:59:04.006Z,16.87
2022-08-17T04:02:14.160Z,16.86
2022-08-17T04:05:17.820Z,16.86
2022-08-17T04:08:21.392Z,16.87
2022-08-17T04:11:25.010Z,16.88
2022-08-17T04:14:31.224Z,16.90
2022-08-17T04:17:36.293Z,16.87
2022-08-17T04:20:39.858Z,16.86
2022-08-17T04:23:43.587Z,16.88
2022-08-17T04:26:52.861Z,16.88
2022-08-17T04:29:58.650Z,16.88
2022-08-17T04:33:09.781Z,16.90
2022-08-17T04:36:16.742Z,16.95
2022-08-17T04:39:20.312Z,16.96
2022-08-17T04:42:23.019Z,17.03
2022-08-17T04:45:34.052Z,17.02
2022-08-17T04:48:43.770Z,17.06
2022-08-17T04:51:56.133Z,17.12
2022-08-17T04:55:05.369Z,17.07
2022-08-17T04:58:10.520Z,17.09
2022-08-17T05:01:14.436Z,17.10
2022-08-17T05:04:33.892Z,17.14
2022-08-17T05:07:39.009Z,17.31
2022-08-17T05:10:45.231Z,17.30
2022-08-17T05:13:50.795Z,17.44
2022-08-17T05:16:54.387Z,17.52
2022-08-17T05:19:59.364Z,17.55
2022-08-17T05:23:08.003Z,17.69
2022-08-17T05:26:26.153Z,17.69
2022-08-17T05:29:33.642Z,17.99
2022-08-17T05:32:40.497Z,18.04
2022-08-17T05:35:49.054Z,18.18
2022-08-17T05:38:52.697Z,18.30
2022-08-17T05:41:56.247Z,18.37
2022-08-17T05:45:00.226Z,18.48
2022-08-17T05:48:04.467Z,18.57
2022-08-17T05:51:37.859Z,18.72
2022-08-17T05:55:04.122Z,18.96
2022-08-17T05:58:23.752Z,19.24
2022-08-17T06:01:42.327Z,19.36
2022-08-17T06:05:11.244Z,19.43
2022-08-17T06:08:33.474Z,19.63
2022-08-17T06:11:46.755Z,19.83
2022-08-17T06:15:14.952Z,19.93
2022-08-17T06:18:24.537Z,20.02
2022-08-17T06:21:34.560Z,20.05
2022-08-17T06:24:47.719Z,20.07
2022-08-17T06:27:56.973Z,19.95
2022-08-17T06:31:09.017Z,20.02
2022-08-17T06:34:14.500Z,19.96
2022-08-17T06:37:43.521Z,20.13
2022-08-17T06:41:07.172Z,20.28
2022-08-17T06:44:42.243Z,20.39
2022-08-17T06:47:54.080Z,20.56
2022-08-17T06:51:06.867Z,20.65
2022-08-17T06:54:24.627Z,20.94
2022-08-17T06:57:33.462Z,21.17
2022-08-17T07:00:43.109Z,21.46
2022-08-17T07:03:56.136Z,21.71
2022-08-17T07:07:26.179Z,21.86
2022-08-17T07:10:39.083Z,21.91
2022-08-17T07:13:55.079Z,21.84
2022-08-17T07:17:04.035Z,21.91
2022-08-17T07:20:12.878Z,21.85
2022-08-17T07:23:34.020Z,21.92
2022-08-17T07:26:38.902Z,22.10
2022-08-17T07:29:51.345Z,22.19
2022-08-17T07:32:59.504Z,22.27
2022-08-17T07:36:03.300Z,22.41
2022-08-17T07:39:07.126Z,22.66
2022-08-17T07:42:12.225Z,22.81
2022-08-17T07:45:31.184Z,23.06
2022-08-17T07:48:39.837Z,23.24
2022-08-17T07:52:47.388Z,23.38
2022-08-17T07:55:35.023Z,23.55
2022-08-17T07:58:38.736Z,23.85
2022-08-17T08:01:49.714Z,24.00
2022-08-17T08:05:09.038Z,24.23
2022-08-17T08:08:29.650Z,24.42
2022-08-17T08:11:38.344Z,24.82
2022-08-17T08:14:56.686Z,25.25
2022-08-17T08:18:04.296Z,25.18
2022-08-17T08:21:18.434Z,25.25
2022-08-17T08:24:53.497Z,25.89
2022-08-17T08:28:16.147Z,26.09
2022-08-17T08:31:44.916Z,26.45
2022-08-17T08:35:04.850Z,26.63
2022-08-17T08:38:29.314Z,27.17
2022-08-17T08:41:44.925Z,27.15
2022-08-17T08:45:04.655Z,27.52
2022-08-17T08:48:52.945Z,27.52
2022-08-17T08:51:56.927Z,27.64
2022-08-17T08:55:10.319Z,28.03
2022-08-17T08:58:31.498Z,28.44
2022-08-17T09:02:00.978Z,28.88
2022-08-17T09:05:26.787Z,28.59
2022-08-17T09:08:57.172Z,28.33
2022-08-17T09:12:10.126Z,28.98
2022-08-17T09:15:21.579Z,29.04
2022-08-17T09:19:00.247Z,29.26
2022-08-17T09:21:59.967Z,29.12
2022-08-17T09:25:13.232Z,28.71
2022-08-17T09:28:21.628Z,29.15
2022-08-17T09:31:41.890Z,29.20
2022-08-17T09:34:56.144Z,28.75
2022-08-17T09:38:12.807Z,28.96
2022-08-17T09:41:25.461Z,28.95
2022-08-17T09:44:39.728Z,29.14
2022-08-17T09:47:55.106Z,28.75
2022-08-17T09:51:08.767Z,29.14
2022-08-17T09:54:44.683Z,29.16
2022-08-17T09:58:00.988Z,28.99
2022-08-17T10:01:29.219Z,28.64
2022-08-17T10:04:50.685Z,28.69
2022-08-17T10:08:09.446Z,28.72
2022-08-17T10:11:48.429Z,28.56
2022-08-17T10:15:22.578Z,28.75
2022-08-17T10:18:48.307Z,28.91
2022-08-17T10:22:35.091Z,29.23
2022-08-17T10:26:04.541Z,28.86
2022-08-17T10:29:21.177Z,29.19
2022-08-17T10:32:41.625Z,29.04
2022-08-17T10:35:57.129Z,29.29
2022-08-17T10:39:19.479Z,29.20
2022-08-17T10:42:33.006Z,29.14
2022-08-17T10:46:10.616Z,28.70
2022-08-17T10:49:34.434Z,28.95
2022-08-17T10:52:50.194Z,28.84
2022-08-17T10:56:23.735Z,28.43
2022-08-17T10:59:51.912Z,28.53
2022-08-17T11:02:58.035Z,28.46
2022-08-17T11:06:23.232Z,28.65
2022-08-17T11:09:44.915Z,28.81
2022-08-17T11:13:14.049Z,28.78
2022-08-17T11:16:45.804Z,28.70
2022-08-17T11:20:14.222Z,28.58
2022-08-17T11:24:14.752Z,28.72
2022-08-17T11:27:29.976Z,28.52
2022-08-17T11:30:52.275Z,28.51
2022-08-17T11:34:05.720Z,28.64
2022-08-17T11:37:47.717Z,28.97
2022-08-17T11:41:19.951Z,28.87
2022-08-17T11:44:41.044Z,29.03
2022-08-17T11:48:29.235Z,29.43
2022-08-17T11:52:15.849Z,29.66
2022-08-17T11:56:06.692Z,29.72
2022-08-17T11:59:55.189Z,29.50
2022-08-17T12:03:23.674Z,29.60
2022-08-17T12:06:47.933Z,29.49
2022-08-17T12:09:53.647Z,29.58
2022-08-17T12:13:00.097Z,29.62
2022-08-17T12:16:04.828Z,29.75
2022-08-17T12:19:21.670Z,29.67
2022-08-17T12:22:33.699Z,29.67
2022-08-17T12:25:45.231Z,29.77
2022-08-17T12:28:58.380Z,29.75
2022-08-17T12:32:04.879Z,29.54
2022-08-17T12:35:22.568Z,29.57
2022-08-17T12:38:32.568Z,29.51
2022-08-17T12:41:44.449Z,29.57
2022-08-17T12:44:50.221Z,29.70
2022-08-17T12:48:04.200Z,29.75
2022-08-17T12:51:08.989Z,29.83
2022-08-17T12:54:26.828Z,30.06
2022-08-17T12:57:35.332Z,30.21
2022-08-17T13:00:48.665Z,29.86
2022-08-17T13:03:59.809Z,29.85
2022-08-17T13:07:03.598Z,29.83
2022-08-17T13:10:08.001Z,29.85
2022-08-17T13:13:27.002Z,29.80
2022-08-17T13:16:33.432Z,30.07
2022-08-17T13:19:45.901Z,30.07
2022-08-17T13:22:57.923Z,30.50
2022-08-17T13:26:07.985Z,30.04
2022-08-17T13:29:24.958Z,30.02
2022-08-17T13:32:43.699Z,29.83
2022-08-17T13:35:50.474Z,29.50
2022-08-17T13:39:08.939Z,29.33
2022-08-17T13:42:33.092Z,29.12
2022-08-17T13:45:50.721Z,29.20
2022-08-17T13:49:06.807Z,29.04
2022-08-17T13:52:34.635Z,28.97
2022-08-17T13:55:38.332Z,29.06
2022-08-17T13:58:55.650Z,29.04
2022-08-17T14:01:59.654Z,29.07
2022-08-17T14:05:06.465Z,29.21
2022-08-17T14:08:15.339Z,29.30
2022-08-17T14:11:19.841Z,29.22
2022-08-17T14:14:24.545Z,29.46
2022-08-17T14:17:34.974Z,29.32
2022-08-17T14:20:43.685Z,29.49
2022-08-17T14:23:54.318Z,29.57
2022-08-17T14:27:00.796Z,29.55
2022-08-17T14:30:07.802Z,29.57
2022-08-17T14:33:11.525Z,29.65
2022-08-17T14:36:16.538Z,29.87
2022-08-17T14:39:21.499Z,29.81
2022-08-17T14:42:27.069Z,29.88
2022-08-17T14:45:33.215Z,29.76
2022-08-17T14:48:38.875Z,29.55
2022-08-17T14:51:44.636Z,29.38
2022-08-17T14:54:48.737Z,29.30
2022-08-17T14:57:52.550Z,29.25
2022-08-17T15:00:56.498Z,29.24
2022-08-17T15:04:01.013Z,29.22
2022-08-17T15:07:06.528Z,29.23
2022-08-17T15:10:10.967Z,29.02
2022-08-17T15:13:22.405Z,28.97
2022-08-17T15:16:27.059Z,29.07
2022-08-17T15:19:30.891Z,28.96
2022-08-17T15:22:36.127Z,28.89
2022-08-17T15:25:39.804Z,28.82
2022-08-17T15:28:43.472Z,28.65
2022-08-17T15:31:51.990Z,28.71
2022-08-17T15:34:57.707Z,28.66
2022-08-17T15:38:11.742Z,28.71
2022-08-17T15:41:18.850Z,28.49
2022-08-17T15:44:22.540Z,28.45
2022-08-17T15:47:37.015Z,28.38
2022-08-17T15:50:41.029Z,28.28
2022-08-17T15:53:49.151Z,28.20
2022-08-17T15:56:52.746Z,28.08
2022-08-17T15:59:58.918Z,28.04
2022-08-17T16:03:45.086Z,27.74
2022-08-17T16:06:27.844Z,27.38
2022-08-17T16:09:32.835Z,27.25
2022-08-17T16:12:37.368Z,27.27
2022-08-17T16:16:00.913Z,27.37
2022-08-17T16:19:04.813Z,27.39
2022-08-17T16:22:12.148Z,27.37
2022-08-17T16:25:20.692Z,27.35
2022-08-17T16:28:35.997Z,27.22
2022-08-17T16:31:41.794Z,27.15
2022-08-17T16:38:07.029Z,27.03
2022-08-17T16:41:12.710Z,26.94
2022-08-17T16:44:22.917Z,26.87
2022-08-17T16:47:27.084Z,26.86
2022-08-17T16:50:31.984Z,26.78
2022-08-17T16:53:35.584Z,26.75
2022-08-17T16:56:40.586Z,26.74
2022-08-17T16:59:47.978Z,26.72
2022-08-17T17:02:51.863Z,26.78
2022-08-17T17:06:13.749Z,26.75
2022-08-17T17:09:28.548Z,26.79
2022-08-17T17:12:59.613Z,26.74
2022-08-17T17:16:21.656Z,26.42
2022-08-17T17:19:35.627Z,25.37
2022-08-17T17:22:49.904Z,24.75
2022-08-17T17:26:06.720Z,24.07
2022-08-17T17:29:46.460Z,23.69
2022-08-17T17:33:00.152Z,23.52
2022-08-17T17:36:16.484Z,23.44
2022-08-17T17:39:33.431Z,23.11
2022-08-17T17:42:41.725Z,22.85
2022-08-17T17:45:57.631Z,22.52
2022-08-17T17:49:14.202Z,22.23
2022-08-17T17:52:27.527Z,22.19
2022-08-17T17:55:44.544Z,22.15
2022-08-17T17:59:02.639Z,22.19
2022-08-17T18:02:44.675Z,22.30
2022-08-17T18:06:09.849Z,22.39
2022-08-17T18:09:34.005Z,22.43
2022-08-17T18:12:46.908Z,22.42
2022-08-17T18:15:54.699Z,22.39
2022-08-17T18:19:00.761Z,22.36
2022-08-17T18:22:13.093Z,22.29
2022-08-17T18:25:43.618Z,22.28
2022-08-17T18:28:52.934Z,22.22
2022-08-17T18:32:34.400Z,22.18
2022-08-17T18:35:39.411Z,22.07
2022-08-17T18:38:44.935Z,22.03
2022-08-17T18:41:53.079Z,21.93
2022-08-17T18:44:57.264Z,21.86
2022-08-17T18:48:01.786Z,21.85
2022-08-17T18:51:40.952Z,21.82
2022-08-17T18:55:10.013Z,21.73
2022-08-17T18:58:19.810Z,21.66
2022-08-17T19:01:52.314Z,21.66
2022-08-17T19:05:10.026Z,21.60
2022-08-17T19:08:25.722Z,21.50
2022-08-17T19:11:33.957Z,21.42
2022-08-17T19:14:38.353Z,21.41
2022-08-17T19:17:51.650Z,21.29
2022-08-17T19:21:05.017Z,21.22
2022-08-17T19:24:19.492Z,21.10
2022-08-17T19:27:41.906Z,21.02
2022-08-17T19:30:51.244Z,20.91
2022-08-17T19:33:56.943Z,20.84
2022-08-17T19:37:08.973Z,20.80
2022-08-17T19:40:51.098Z,20.75
2022-08-17T19:44:47.205Z,20.66
2022-08-17T19:48:14.954Z,20.58
2022-08-17T19:51:31.588Z,20.55
2022-08-17T19:54:47.329Z,20.52
2022-08-17T19:58:04.587Z,20.50
2022-08-17T20:01:13.391Z,20.43
2022-08-17T20:04:33.999Z,20.36
2022-08-17T20:07:51.830Z,20.29
2022-08-17T20:11:01.424Z,20.20
2022-08-17T20:14:14.533Z,20.13
2022-08-17T20:17:18.656Z,20.09
2022-08-17T20:20:32.305Z,20.02
2022-08-17T20:23:53.522Z,19.98
2022-08-17T20:27:02.120Z,19.95
2022-08-17T20:30:12.109Z,19.91
2022-08-17T20:33:28.239Z,19.92
2022-08-17T20:36:36.839Z,19.86
2022-08-17T20:39:44.619Z,19.70
2022-08-17T20:42:48.523Z,19.61
2022-08-17T20:46:16.808Z,19.45
2022-08-17T20:49:28.281Z,19.34
2022-08-17T20:52:58.198Z,19.36
2022-08-17T20:56:01.719Z,19.32
2022-08-17T20:59:05.473Z,19.22
2022-08-17T21:02:21.068Z,19.03
2022-08-17T21:05:34.546Z,18.89
2022-08-17T21:08:45.890Z,18.80
2022-08-17T21:12:05.470Z,18.66
2022-08-17T21:15:37.020Z,18.43
2022-08-17T21:18:57.277Z,18.44
2022-08-17T21:22:22.558Z,18.52
2022-08-17T21:25:52.934Z,18.43
2022-08-17T21:29:31.489Z,18.34
2022-08-17T21:32:40.494Z,18.37
2022-08-17T21:35:58.694Z,18.33
2022-08-17T21:39:11.605Z,18.37
2022-08-17T21:42:15.452Z,18.41
2022-08-17T21:45:31.750Z,18.42
2022-08-17T21:48:45.799Z,18.46
2022-08-17T21:51:57.169Z,18.41
2022-08-17T21:55:03.315Z,18.47
2022-08-17T21:58:28.920Z,18.47
2022-08-17T22:01:36.052Z,18.54
2022-08-17T22:04:42.656Z,18.51
2022-08-17T22:08:00.043Z,18.50
2022-08-17T22:11:03.967Z,18.49
2022-08-17T22:14:18.589Z,18.53
2022-08-17T22:17:28.135Z,18.56
2022-08-17T22:20:31.953Z,18.57
2022-08-17T22:24:00.045Z,18.63
2022-08-17T22:27:10.474Z,18.73
2022-08-17T22:30:36.488Z,18.68
2022-08-17T22:33:45.644Z,18.70
2022-08-17T22:36:49.275Z,18.68
2022-08-17T22:40:00.767Z,18.74
2022-08-17T22:43:05.070Z,18.75
2022-08-17T22:46:11.739Z,18.75
2022-08-17T22:49:27.379Z,18.75
2022-08-17T22:52:35.803Z,18.76
2022-08-17T22:56:09.920Z,18.78
2022-08-17T22:59:23.563Z,18.72
2022-08-17T23:02:31.967Z,18.71
2022-08-17T23:05:36.332Z,18.73
2022-08-17T23:08:49.212Z,18.77
2022-08-17T23:11:58.778Z,18.77
2022-08-17T23:15:03.816Z,18.73
2022-08-17T23:18:08.201Z,18.67
2022-08-17T23:21:13.497Z,18.66
2022-08-17T23:24:33.151Z,18.66
2022-08-17T23:27:38.104Z,18.65
2022-08-17T23:30:46.579Z,18.66
2022-08-17T23:33:51.179Z,18.66
2022-08-17T23:36:55.128Z,18.68
2022-08-17T23:39:58.771Z,18.71
2022-08-17T23:43:17.410Z,18.73
2022-08-17T23:46:28.776Z,18.73
2022-08-17T23:49:33.383Z,18.78
2022-08-17T23:52:38.625Z,18.77
2022-08-17T23:55:42.497Z,18.75
2022-08-17T23:58:47.721Z,18.72
